createdAt,value
2019-06-26T00:00:43.725Z,22.30
2019-06-26T00:03:16.041Z,22.40
2019-06-26T00:05:45.063Z,22.30
2019-06-26T00:08:14.089Z,22.30
2019-06-26T00:10:45.920Z,22.30
2019-06-26T00:13:26.108Z,22.20
2019-06-26T00:15:48.742Z,22.30
2019-06-26T00:18:20.841Z,22.20
2019-06-26T00:20:49.806Z,22.20
2019-06-26T00:23:25.107Z,22.20
2019-06-26T00:26:03.382Z,22.20
2019-06-26T00:28:33.701Z,22.10
2019-06-26T00:31:02.549Z,21.90
2019-06-26T00:33:31.490Z,21.90
2019-06-26T00:36:00.561Z,21.80
2019-06-26T00:38:30.761Z,21.80
2019-06-26T00:40:59.689Z,21.80
2019-06-26T00:43:42.000Z,21.90
2019-06-26T00:45:59.874Z,21.80
2019-06-26T00:48:28.800Z,21.70
2019-06-26T00:51:00.548Z,21.60
2019-06-26T00:53:29.538Z,21.50
2019-06-26T00:55:58.525Z,21.40
2019-06-26T00:58:28.138Z,21.20
2019-06-26T01:00:59.857Z,21.10
2019-06-26T01:03:35.020Z,21.00
2019-06-26T01:06:05.115Z,21.00
2019-06-26T01:08:33.955Z,21.00
2019-06-26T01:11:04.248Z,20.90
2019-06-26T01:13:33.081Z,20.80
2019-06-26T01:16:02.370Z,20.80
2019-06-26T01:18:34.012Z,20.70
2019-06-26T01:21:05.928Z,20.70
2019-06-26T01:23:41.279Z,20.70
2019-06-26T01:26:13.257Z,20.60
2019-06-26T01:28:42.168Z,20.60
2019-06-26T01:31:14.092Z,20.60
2019-06-26T01:33:45.857Z,20.60
2019-06-26T01:36:18.173Z,20.60
2019-06-26T01:38:50.291Z,20.60
2019-06-26T01:41:22.081Z,20.60
2019-06-26T01:43:51.299Z,20.70
2019-06-26T01:46:20.312Z,20.70
2019-06-26T01:48:52.357Z,20.60
2019-06-26T01:51:21.935Z,20.60
2019-06-26T01:53:54.445Z,20.60
2019-06-26T01:56:23.328Z,20.60
2019-06-26T01:58:52.146Z,20.60
2019-06-26T02:01:21.305Z,20.70
2019-06-26T02:03:50.344Z,20.60
2019-06-26T02:06:19.563Z,20.60
2019-06-26T02:08:51.992Z,20.60
2019-06-26T02:11:20.983Z,20.60
2019-06-26T02:13:49.864Z,20.60
2019-06-26T02:16:20.591Z,20.70
2019-06-26T02:18:53.832Z,20.70
2019-06-26T02:21:24.204Z,20.70
2019-06-26T02:23:57.180Z,20.70
2019-06-26T02:26:26.323Z,20.70
2019-06-26T02:28:55.301Z,20.70
2019-06-26T02:31:24.221Z,20.70
2019-06-26T02:33:56.300Z,20.60
2019-06-26T02:36:25.267Z,20.70
2019-06-26T02:38:54.188Z,20.70
2019-06-26T02:41:23.151Z,20.80
2019-06-26T02:43:52.097Z,20.80
2019-06-26T02:46:21.433Z,20.80
2019-06-26T02:48:50.325Z,20.80
2019-06-26T02:51:21.001Z,20.80
2019-06-26T02:53:49.873Z,20.90
2019-06-26T02:56:19.154Z,20.80
2019-06-26T02:58:48.354Z,20.90
2019-06-26T03:01:21.705Z,20.90
2019-06-26T03:03:50.533Z,20.80
2019-06-26T03:06:22.546Z,20.80
2019-06-26T03:08:54.351Z,20.90
2019-06-26T03:11:29.426Z,20.80
2019-06-26T03:13:58.349Z,20.80
2019-06-26T03:16:27.353Z,20.70
2019-06-26T03:18:59.047Z,20.70
2019-06-26T03:21:28.005Z,20.70
2019-06-26T03:23:57.450Z,20.80
2019-06-26T03:26:29.813Z,20.90
2019-06-26T03:29:05.157Z,20.90
2019-06-26T03:31:34.760Z,20.90
2019-06-26T03:34:03.960Z,20.90
2019-06-26T03:36:36.032Z,20.90
2019-06-26T03:39:07.273Z,20.90
2019-06-26T03:41:36.163Z,21.00
2019-06-26T03:44:05.142Z,21.00
2019-06-26T03:46:34.282Z,21.20
2019-06-26T03:49:06.158Z,21.20
2019-06-26T03:51:35.532Z,21.30
2019-06-26T03:54:07.323Z,21.30
2019-06-26T03:56:39.062Z,21.30
2019-06-26T03:59:08.335Z,21.30
2019-06-26T04:01:37.212Z,21.30
2019-06-26T04:04:09.286Z,21.30
2019-06-26T04:06:41.274Z,21.20
2019-06-26T04:09:12.366Z,21.30
2019-06-26T04:11:44.070Z,21.40
2019-06-26T04:14:13.119Z,21.50
2019-06-26T04:16:44.175Z,21.70
2019-06-26T04:19:13.150Z,21.80
2019-06-26T04:21:42.224Z,21.80
2019-06-26T04:24:11.125Z,21.90
2019-06-26T04:26:45.453Z,22.00
2019-06-26T04:29:17.042Z,22.00
2019-06-26T04:31:46.251Z,22.10
2019-06-26T04:34:15.270Z,22.20
2019-06-26T04:36:44.204Z,22.40
2019-06-26T04:39:13.186Z,22.50
2019-06-26T04:41:49.394Z,22.60
2019-06-26T04:44:21.231Z,22.70
2019-06-26T04:46:50.120Z,22.80
2019-06-26T04:49:19.030Z,23.00
2019-06-26T04:51:51.402Z,23.10
2019-06-26T04:54:23.061Z,23.20
2019-06-26T04:56:55.040Z,23.50
2019-06-26T04:59:24.025Z,23.50
2019-06-26T05:01:52.989Z,23.50
2019-06-26T05:04:21.936Z,23.50
2019-06-26T05:06:50.899Z,23.40
2019-06-26T05:09:19.776Z,23.40
2019-06-26T05:11:48.807Z,23.30
2019-06-26T05:14:20.510Z,23.20
2019-06-26T05:16:49.445Z,23.20
2019-06-26T05:19:18.478Z,23.10
2019-06-26T05:21:50.742Z,23.10
2019-06-26T05:24:20.206Z,23.10
2019-06-26T05:26:55.347Z,23.20
2019-06-26T05:29:24.340Z,23.30
2019-06-26T05:31:56.041Z,23.30
2019-06-26T05:34:25.264Z,23.30
2019-06-26T05:36:54.225Z,23.30
2019-06-26T05:39:26.356Z,23.50
2019-06-26T05:41:57.486Z,23.50
2019-06-26T05:44:26.497Z,23.60
2019-06-26T05:46:55.537Z,23.70
2019-06-26T05:49:27.771Z,23.80
2019-06-26T05:52:02.099Z,23.80
2019-06-26T05:54:34.167Z,23.90
2019-06-26T05:57:06.131Z,24.00
2019-06-26T05:59:36.633Z,24.00
2019-06-26T06:02:05.954Z,24.00
2019-06-26T06:04:37.917Z,24.10
2019-06-26T06:07:07.328Z,24.20
2019-06-26T06:09:36.233Z,24.20
2019-06-26T06:12:05.244Z,24.30
2019-06-26T06:14:34.105Z,24.30
2019-06-26T06:17:02.948Z,24.30
2019-06-26T06:19:32.178Z,24.40
2019-06-26T06:22:01.387Z,24.40
2019-06-26T06:24:30.356Z,24.50
2019-06-26T06:27:02.325Z,24.50
2019-06-26T06:29:31.260Z,24.60
2019-06-26T06:32:00.511Z,24.70
2019-06-26T06:34:29.422Z,24.80
2019-06-26T06:36:59.116Z,25.00
2019-06-26T06:39:32.657Z,25.10
2019-06-26T06:42:02.061Z,25.30
2019-06-26T06:44:37.210Z,25.30
2019-06-26T06:47:10.646Z,25.50
2019-06-26T06:49:42.318Z,25.60
2019-06-26T06:52:11.519Z,25.70
2019-06-26T06:54:40.358Z,25.80
2019-06-26T06:57:09.195Z,25.80
2019-06-26T06:59:38.228Z,26.00
2019-06-26T07:02:12.198Z,26.10
2019-06-26T07:04:41.451Z,26.20
2019-06-26T07:07:10.697Z,26.30
2019-06-26T07:09:39.705Z,26.50
2019-06-26T07:12:08.680Z,26.60
2019-06-26T07:14:40.429Z,26.70
2019-06-26T07:17:20.950Z,26.70
2019-06-26T07:19:49.495Z,26.70
2019-06-26T07:22:24.796Z,26.80
2019-06-26T07:24:53.760Z,26.80
2019-06-26T07:27:22.745Z,26.80
2019-06-26T07:29:51.918Z,26.80
2019-06-26T07:32:21.018Z,26.80
2019-06-26T07:34:52.890Z,26.80
2019-06-26T07:37:21.801Z,26.80
2019-06-26T07:39:50.879Z,26.80
2019-06-26T07:42:20.214Z,26.90
2019-06-26T07:44:49.058Z,27.00
2019-06-26T07:47:22.955Z,27.20
2019-06-26T07:49:48.962Z,27.30
2019-06-26T07:52:19.703Z,27.30
2019-06-26T07:54:48.669Z,27.40
2019-06-26T07:57:20.909Z,27.40
2019-06-26T07:59:49.803Z,27.60
2019-06-26T08:02:18.728Z,27.60
2019-06-26T08:04:47.777Z,27.60
2019-06-26T08:07:19.571Z,27.70
2019-06-26T08:09:51.838Z,27.70
2019-06-26T08:12:20.745Z,27.80
2019-06-26T08:14:49.698Z,27.80
2019-06-26T08:17:21.833Z,27.90
2019-06-26T08:19:54.705Z,27.90
2019-06-26T08:22:24.032Z,28.00
2019-06-26T08:24:53.202Z,28.10
2019-06-26T08:27:22.149Z,28.30
2019-06-26T08:29:51.377Z,28.40
2019-06-26T08:32:20.537Z,28.40
2019-06-26T08:34:49.843Z,28.40
2019-06-26T08:37:18.857Z,28.50
2019-06-26T08:39:47.757Z,28.70
2019-06-26T08:42:16.984Z,28.80
2019-06-26T08:44:48.887Z,28.90
2019-06-26T08:47:20.905Z,29.00
2019-06-26T08:49:49.817Z,29.00
2019-06-26T08:52:18.843Z,29.00
2019-06-26T08:54:47.745Z,29.10
2019-06-26T08:57:17.549Z,29.30
2019-06-26T08:59:46.618Z,29.30
2019-06-26T09:02:15.517Z,29.30
2019-06-26T09:04:50.649Z,29.30
2019-06-26T09:07:22.875Z,29.30
2019-06-26T09:09:54.610Z,29.40
2019-06-26T09:12:32.756Z,29.50
2019-06-26T09:15:01.791Z,29.50
2019-06-26T09:17:30.908Z,29.70
2019-06-26T09:20:09.129Z,29.80
2019-06-26T09:22:38.112Z,29.90
2019-06-26T09:25:21.695Z,29.90
2019-06-26T09:27:41.561Z,29.90
2019-06-26T09:30:10.818Z,30.20
2019-06-26T09:32:39.771Z,30.30
2019-06-26T09:35:11.753Z,30.40
2019-06-26T09:37:40.751Z,30.50
2019-06-26T09:40:12.929Z,30.60
2019-06-26T09:42:41.834Z,30.60
2019-06-26T09:45:10.814Z,30.90
2019-06-26T09:47:40.197Z,31.00
2019-06-26T09:50:09.376Z,31.20
2019-06-26T09:52:41.224Z,31.20
2019-06-26T09:55:10.685Z,31.30
2019-06-26T09:57:39.912Z,31.40
2019-06-26T10:00:15.799Z,31.50
2019-06-26T10:02:47.969Z,31.50
2019-06-26T10:05:18.141Z,31.50
2019-06-26T10:07:51.733Z,31.60
2019-06-26T10:10:20.745Z,31.70
2019-06-26T10:12:52.500Z,31.60
2019-06-26T10:15:21.848Z,31.50
2019-06-26T10:17:50.832Z,31.50
2019-06-26T10:20:22.640Z,31.50
2019-06-26T10:22:54.673Z,31.60
2019-06-26T10:25:24.086Z,31.80
2019-06-26T10:27:53.054Z,31.90
2019-06-26T10:30:22.342Z,31.90
2019-06-26T10:32:51.289Z,32.10
2019-06-26T10:35:23.099Z,32.20
2019-06-26T10:37:52.107Z,32.20
2019-06-26T10:40:21.271Z,32.20
2019-06-26T10:42:50.146Z,32.20
2019-06-26T10:45:22.290Z,32.30
2019-06-26T10:47:51.466Z,32.50
2019-06-26T10:50:20.458Z,32.50
2019-06-26T10:52:49.374Z,32.60
2019-06-26T10:55:21.307Z,32.60
2019-06-26T10:57:54.129Z,32.60
2019-06-26T11:00:34.182Z,32.60
2019-06-26T11:03:18.503Z,32.80
2019-06-26T11:05:48.777Z,32.80
2019-06-26T11:08:20.766Z,32.90
2019-06-26T11:10:49.766Z,33.00
2019-06-26T11:13:18.667Z,33.20
2019-06-26T11:15:50.281Z,33.20
2019-06-26T11:18:19.392Z,33.30
2019-06-26T11:20:51.058Z,33.30
2019-06-26T11:23:19.901Z,33.30
2019-06-26T11:25:51.946Z,33.20
2019-06-26T11:28:24.015Z,33.50
2019-06-26T11:30:53.525Z,33.80
2019-06-26T11:33:50.952Z,34.00
2019-06-26T11:36:30.500Z,34.00
2019-06-26T11:39:29.832Z,34.00
2019-06-26T11:42:03.086Z,34.10
2019-06-26T11:44:32.428Z,34.30
2019-06-26T11:48:13.675Z,34.40
2019-06-26T11:50:42.670Z,34.50
2019-06-26T11:53:11.673Z,35.60
2019-06-26T11:55:41.002Z,36.60
2019-06-26T11:58:10.693Z,37.40
2019-06-26T12:00:41.709Z,38.30
2019-06-26T12:03:13.138Z,39.20
2019-06-26T12:05:40.886Z,39.80
2019-06-26T12:08:09.807Z,39.90
2019-06-26T12:10:39.029Z,40.20
2019-06-26T12:13:07.896Z,40.60
2019-06-26T12:15:36.828Z,40.90
2019-06-26T12:18:05.744Z,40.90
2019-06-26T12:20:34.682Z,41.10
2019-06-26T12:23:04.005Z,40.90
2019-06-26T12:25:35.754Z,41.00
2019-06-26T12:28:05.185Z,41.50
2019-06-26T12:30:34.020Z,42.10
2019-06-26T12:33:03.881Z,42.20
2019-06-26T12:35:33.000Z,42.00
2019-06-26T12:38:05.103Z,42.50
2019-06-26T12:40:34.025Z,42.40
2019-06-26T12:43:03.180Z,42.60
2019-06-26T12:45:32.405Z,42.60
2019-06-26T12:48:01.315Z,42.10
2019-06-26T12:50:35.869Z,41.80
2019-06-26T12:53:05.061Z,41.50
2019-06-26T12:55:36.789Z,41.60
2019-06-26T12:58:13.269Z,42.10
2019-06-26T13:00:39.826Z,42.40
2019-06-26T13:03:08.730Z,42.60
2019-06-26T13:05:37.556Z,42.30
2019-06-26T13:08:06.569Z,41.60
2019-06-26T13:10:48.913Z,40.70
2019-06-26T13:13:08.996Z,40.40
2019-06-26T13:15:42.114Z,39.90
2019-06-26T13:18:12.783Z,39.60
2019-06-26T13:20:52.106Z,39.40
2019-06-26T13:23:14.747Z,39.10
2019-06-26T13:25:43.065Z,39.00
2019-06-26T13:28:11.882Z,39.00
2019-06-26T13:30:41.119Z,38.80
2019-06-26T13:33:10.375Z,38.70
2019-06-26T13:35:39.568Z,38.80
2019-06-26T13:38:14.391Z,38.60
2019-06-26T13:40:43.378Z,38.60
2019-06-26T13:43:12.290Z,38.20
2019-06-26T13:45:41.230Z,38.10
2019-06-26T13:48:14.325Z,38.00
2019-06-26T13:50:40.694Z,37.90
2019-06-26T13:53:09.688Z,37.80
2019-06-26T13:55:41.579Z,37.80
2019-06-26T13:58:10.567Z,37.70
2019-06-26T14:00:40.745Z,37.70
2019-06-26T14:03:10.070Z,38.00
2019-06-26T14:05:39.077Z,38.20
2019-06-26T14:08:08.384Z,38.00
2019-06-26T14:10:37.414Z,37.70
2019-06-26T14:13:06.648Z,37.70
2019-06-26T14:15:37.930Z,37.70
2019-06-26T14:18:06.733Z,37.80
2019-06-26T14:20:40.220Z,37.90
2019-06-26T14:23:09.157Z,38.00
2019-06-26T14:25:38.165Z,38.10
2019-06-26T14:28:10.540Z,38.00
2019-06-26T14:45:00.303Z,37.40
2019-06-26T14:47:35.536Z,37.50
2019-06-26T15:05:55.352Z,37.30
2019-06-26T16:02:22.522Z,36.30
2019-06-26T16:05:26.176Z,36.00
2019-06-26T16:30:07.551Z,36.00
2019-06-26T16:45:22.864Z,35.40
2019-06-26T16:47:55.106Z,35.50
2019-06-26T16:50:40.337Z,35.40
2019-06-26T16:53:15.389Z,35.20
2019-06-26T16:55:54.834Z,35.30
2019-06-26T16:58:24.343Z,35.30
2019-06-26T17:00:59.362Z,35.30
2019-06-26T17:03:33.280Z,35.30
2019-06-26T17:06:03.997Z,35.40
2019-06-26T17:08:35.027Z,35.30
2019-06-26T17:11:04.601Z,35.20
2019-06-26T17:13:33.615Z,35.10
2019-06-26T17:18:56.543Z,35.00
2019-06-26T18:01:43.683Z,34.10
